sensor_id;sensor_type;location;lat;lon;timestamp;temperature;humidity
28763;DHT22;15918;51.270;6.522;2023-07-16T00:02:12;24.80;58.90
28763;DHT22;15918;51.270;6.522;2023-07-16T00:04:38;24.80;59.00
28763;DHT22;15918;51.270;6.522;2023-07-16T00:07:04;24.80;59.10
28763;DHT22;15918;51.270;6.522;2023-07-16T00:09:29;24.80;59.10
28763;DHT22;15918;51.270;6.522;2023-07-16T00:11:56;24.70;59.20
28763;DHT22;15918;51.270;6.522;2023-07-16T00:14:22;24.70;59.30
28763;DHT22;15918;51.270;6.522;2023-07-16T00:16:47;24.70;59.40
28763;DHT22;15918;51.270;6.522;2023-07-16T00:19:14;24.70;59.50
28763;DHT22;15918;51.270;6.522;2023-07-16T00:21:40;24.70;59.50
28763;DHT22;15918;51.270;6.522;2023-07-16T00:24:06;24.70;59.50
28763;DHT22;15918;51.270;6.522;2023-07-16T00:26:31;24.70;59.60
28763;DHT22;15918;51.270;6.522;2023-07-16T00:28:57;24.70;59.60
28763;DHT22;15918;51.270;6.522;2023-07-16T00:31:22;24.60;59.60
28763;DHT22;15918;51.270;6.522;2023-07-16T00:33:48;24.60;59.60
28763;DHT22;15918;51.270;6.522;2023-07-16T00:36:14;24.60;59.50
28763;DHT22;15918;51.270;6.522;2023-07-16T00:38:39;24.60;59.50
28763;DHT22;15918;51.270;6.522;2023-07-16T00:41:06;24.60;59.50
28763;DHT22;15918;51.270;6.522;2023-07-16T00:43:32;24.60;59.40
28763;DHT22;15918;51.270;6.522;2023-07-16T00:45:58;24.60;59.40
28763;DHT22;15918;51.270;6.522;2023-07-16T00:48:23;24.60;59.40
28763;DHT22;15918;51.270;6.522;2023-07-16T00:50:50;24.50;59.40
28763;DHT22;15918;51.270;6.522;2023-07-16T00:53:17;24.60;59.40
28763;DHT22;15918;51.270;6.522;2023-07-16T00:55:43;24.50;59.40
28763;DHT22;15918;51.270;6.522;2023-07-16T00:58:09;24.50;59.40
28763;DHT22;15918;51.270;6.522;2023-07-16T01:00:36;24.50;59.50
28763;DHT22;15918;51.270;6.522;2023-07-16T01:03:04;24.50;59.60
28763;DHT22;15918;51.270;6.522;2023-07-16T01:05:43;24.50;59.50
28763;DHT22;15918;51.270;6.522;2023-07-16T01:08:11;24.50;59.60
28763;DHT22;15918;51.270;6.522;2023-07-16T01:10:38;24.40;59.60
28763;DHT22;15918;51.270;6.522;2023-07-16T01:13:04;24.40;59.60
28763;DHT22;15918;51.270;6.522;2023-07-16T01:15:30;24.40;59.60
28763;DHT22;15918;51.270;6.522;2023-07-16T01:17:56;24.40;59.60
28763;DHT22;15918;51.270;6.522;2023-07-16T01:20:22;24.40;59.50
28763;DHT22;15918;51.270;6.522;2023-07-16T01:28:22;24.40;59.40
28763;DHT22;15918;51.270;6.522;2023-07-16T01:30:52;24.40;59.40
28763;DHT22;15918;51.270;6.522;2023-07-16T01:33:18;24.40;59.40
28763;DHT22;15918;51.270;6.522;2023-07-16T01:35:46;24.40;59.40
28763;DHT22;15918;51.270;6.522;2023-07-16T01:38:12;24.40;59.40
28763;DHT22;15918;51.270;6.522;2023-07-16T01:40:38;24.40;59.30
28763;DHT22;15918;51.270;6.522;2023-07-16T01:43:04;24.40;59.30
28763;DHT22;15918;51.270;6.522;2023-07-16T01:45:30;24.40;59.30
28763;DHT22;15918;51.270;6.522;2023-07-16T01:50:36;24.30;59.10
28763;DHT22;15918;51.270;6.522;2023-07-16T01:53:02;24.30;59.20
28763;DHT22;15918;51.270;6.522;2023-07-16T01:55:27;24.30;59.20
28763;DHT22;15918;51.270;6.522;2023-07-16T01:57:53;24.30;59.10
28763;DHT22;15918;51.270;6.522;2023-07-16T02:00:19;24.30;59.10
28763;DHT22;15918;51.270;6.522;2023-07-16T02:02:45;24.30;59.10
28763;DHT22;15918;51.270;6.522;2023-07-16T02:05:11;24.30;59.00
28763;DHT22;15918;51.270;6.522;2023-07-16T02:07:37;24.20;58.90
28763;DHT22;15918;51.270;6.522;2023-07-16T02:10:02;24.30;58.90
28763;DHT22;15918;51.270;6.522;2023-07-16T02:12:28;24.20;58.80
28763;DHT22;15918;51.270;6.522;2023-07-16T02:14:54;24.30;58.80
28763;DHT22;15918;51.270;6.522;2023-07-16T02:17:19;24.20;58.70
28763;DHT22;15918;51.270;6.522;2023-07-16T02:19:45;24.20;58.70
28763;DHT22;15918;51.270;6.522;2023-07-16T02:22:10;24.20;58.60
28763;DHT22;15918;51.270;6.522;2023-07-16T02:24:36;24.20;58.60
28763;DHT22;15918;51.270;6.522;2023-07-16T02:27:02;24.20;58.60
28763;DHT22;15918;51.270;6.522;2023-07-16T02:29:27;24.20;58.50
28763;DHT22;15918;51.270;6.522;2023-07-16T02:31:53;24.20;58.50
28763;DHT22;15918;51.270;6.522;2023-07-16T02:34:18;24.20;58.40
28763;DHT22;15918;51.270;6.522;2023-07-16T02:36:44;24.20;58.40
28763;DHT22;15918;51.270;6.522;2023-07-16T02:39:10;24.20;58.40
28763;DHT22;15918;51.270;6.522;2023-07-16T02:41:35;24.10;58.40
28763;DHT22;15918;51.270;6.522;2023-07-16T02:44:03;24.10;58.40
28763;DHT22;15918;51.270;6.522;2023-07-16T02:46:29;24.10;58.40
28763;DHT22;15918;51.270;6.522;2023-07-16T02:48:55;24.10;58.40
28763;DHT22;15918;51.270;6.522;2023-07-16T02:51:20;24.10;58.40
28763;DHT22;15918;51.270;6.522;2023-07-16T02:53:46;24.10;58.40
28763;DHT22;15918;51.270;6.522;2023-07-16T02:56:11;24.10;58.30
28763;DHT22;15918;51.270;6.522;2023-07-16T02:58:37;24.00;58.30
28763;DHT22;15918;51.270;6.522;2023-07-16T03:01:02;24.00;58.30
28763;DHT22;15918;51.270;6.522;2023-07-16T03:03:28;24.00;58.90
28763;DHT22;15918;51.270;6.522;2023-07-16T03:05:54;24.00;58.10
28763;DHT22;15918;51.270;6.522;2023-07-16T03:08:19;24.00;58.10
28763;DHT22;15918;51.270;6.522;2023-07-16T03:10:45;23.90;58.00
28763;DHT22;15918;51.270;6.522;2023-07-16T03:13:10;23.90;57.90
28763;DHT22;15918;51.270;6.522;2023-07-16T03:15:36;23.90;57.80
28763;DHT22;15918;51.270;6.522;2023-07-16T03:18:02;23.90;57.80
28763;DHT22;15918;51.270;6.522;2023-07-16T03:20:27;23.90;57.70
28763;DHT22;15918;51.270;6.522;2023-07-16T03:22:53;23.80;57.50
28763;DHT22;15918;51.270;6.522;2023-07-16T03:25:19;23.80;57.40
28763;DHT22;15918;51.270;6.522;2023-07-16T03:27:44;23.80;57.40
28763;DHT22;15918;51.270;6.522;2023-07-16T03:30:10;23.80;57.20
28763;DHT22;15918;51.270;6.522;2023-07-16T03:32:35;23.70;57.20
28763;DHT22;15918;51.270;6.522;2023-07-16T03:35:01;23.70;57.10
28763;DHT22;15918;51.270;6.522;2023-07-16T03:37:26;23.70;57.60
28763;DHT22;15918;51.270;6.522;2023-07-16T03:39:52;23.70;56.90
28763;DHT22;15918;51.270;6.522;2023-07-16T03:42:18;23.70;56.80
28763;DHT22;15918;51.270;6.522;2023-07-16T03:44:44;23.70;56.80
28763;DHT22;15918;51.270;6.522;2023-07-16T03:47:10;23.70;56.80
28763;DHT22;15918;51.270;6.522;2023-07-16T03:49:35;23.70;56.80
28763;DHT22;15918;51.270;6.522;2023-07-16T03:52:01;23.70;56.80
28763;DHT22;15918;51.270;6.522;2023-07-16T03:54:27;23.60;56.70
28763;DHT22;15918;51.270;6.522;2023-07-16T03:56:54;23.60;56.60
28763;DHT22;15918;51.270;6.522;2023-07-16T03:59:19;23.60;56.50
28763;DHT22;15918;51.270;6.522;2023-07-16T04:01:45;23.60;56.50
28763;DHT22;15918;51.270;6.522;2023-07-16T04:04:11;23.60;56.50
28763;DHT22;15918;51.270;6.522;2023-07-16T04:06:36;23.60;56.50
28763;DHT22;15918;51.270;6.522;2023-07-16T04:09:02;23.60;56.40
28763;DHT22;15918;51.270;6.522;2023-07-16T04:11:27;23.60;56.40
28763;DHT22;15918;51.270;6.522;2023-07-16T04:13:53;23.60;56.40
28763;DHT22;15918;51.270;6.522;2023-07-16T04:16:19;23.50;56.30
28763;DHT22;15918;51.270;6.522;2023-07-16T04:18:44;23.60;56.30
28763;DHT22;15918;51.270;6.522;2023-07-16T04:21:10;23.50;56.20
28763;DHT22;15918;51.270;6.522;2023-07-16T04:23:35;23.50;56.10
28763;DHT22;15918;51.270;6.522;2023-07-16T04:26:01;23.50;56.00
28763;DHT22;15918;51.270;6.522;2023-07-16T04:28:26;23.50;55.90
28763;DHT22;15918;51.270;6.522;2023-07-16T04:30:52;23.50;55.80
28763;DHT22;15918;51.270;6.522;2023-07-16T04:33:18;23.50;55.80
28763;DHT22;15918;51.270;6.522;2023-07-16T04:35:44;23.40;55.70
28763;DHT22;15918;51.270;6.522;2023-07-16T04:38:10;23.40;55.60
28763;DHT22;15918;51.270;6.522;2023-07-16T04:40:35;23.40;55.60
28763;DHT22;15918;51.270;6.522;2023-07-16T04:43:01;23.40;55.70
28763;DHT22;15918;51.270;6.522;2023-07-16T04:45:26;23.40;55.70
28763;DHT22;15918;51.270;6.522;2023-07-16T04:47:52;23.40;55.70
28763;DHT22;15918;51.270;6.522;2023-07-16T04:50:17;23.40;56.30
28763;DHT22;15918;51.270;6.522;2023-07-16T04:52:43;23.40;55.70
28763;DHT22;15918;51.270;6.522;2023-07-16T04:55:09;23.40;55.80
28763;DHT22;15918;51.270;6.522;2023-07-16T04:57:34;23.40;55.80
28763;DHT22;15918;51.270;6.522;2023-07-16T05:00:00;23.40;55.90
28763;DHT22;15918;51.270;6.522;2023-07-16T05:02:25;23.40;55.90
28763;DHT22;15918;51.270;6.522;2023-07-16T05:04:51;23.40;56.00
28763;DHT22;15918;51.270;6.522;2023-07-16T05:07:17;23.40;56.00
28763;DHT22;15918;51.270;6.522;2023-07-16T05:09:43;23.40;56.00
28763;DHT22;15918;51.270;6.522;2023-07-16T05:12:08;23.40;56.00
28763;DHT22;15918;51.270;6.522;2023-07-16T05:14:47;23.40;56.00
28763;DHT22;15918;51.270;6.522;2023-07-16T05:17:13;23.40;55.90
28763;DHT22;15918;51.270;6.522;2023-07-16T05:19:39;23.30;56.00
28763;DHT22;15918;51.270;6.522;2023-07-16T05:22:05;23.40;56.10
28763;DHT22;15918;51.270;6.522;2023-07-16T05:24:31;23.30;55.90
28763;DHT22;15918;51.270;6.522;2023-07-16T05:26:57;23.40;55.90
28763;DHT22;15918;51.270;6.522;2023-07-16T05:29:23;23.30;55.80
28763;DHT22;15918;51.270;6.522;2023-07-16T05:31:49;23.30;55.70
28763;DHT22;15918;51.270;6.522;2023-07-16T05:34:15;23.30;55.50
28763;DHT22;15918;51.270;6.522;2023-07-16T05:36:41;23.30;55.40
28763;DHT22;15918;51.270;6.522;2023-07-16T05:39:07;23.30;55.40
28763;DHT22;15918;51.270;6.522;2023-07-16T05:41:34;23.30;55.10
28763;DHT22;15918;51.270;6.522;2023-07-16T05:43:59;23.30;55.00
28763;DHT22;15918;51.270;6.522;2023-07-16T05:46:25;23.30;55.00
28763;DHT22;15918;51.270;6.522;2023-07-16T05:48:51;23.30;54.90
28763;DHT22;15918;51.270;6.522;2023-07-16T05:51:17;23.30;54.80
28763;DHT22;15918;51.270;6.522;2023-07-16T05:53:42;23.30;54.80
28763;DHT22;15918;51.270;6.522;2023-07-16T05:56:08;23.30;54.80
28763;DHT22;15918;51.270;6.522;2023-07-16T05:58:33;23.30;54.80
28763;DHT22;15918;51.270;6.522;2023-07-16T06:00:59;23.30;54.60
28763;DHT22;15918;51.270;6.522;2023-07-16T06:03:25;23.40;54.60
28763;DHT22;15918;51.270;6.522;2023-07-16T06:05:50;23.40;54.50
28763;DHT22;15918;51.270;6.522;2023-07-16T06:08:16;23.40;54.50
28763;DHT22;15918;51.270;6.522;2023-07-16T06:10:41;23.40;54.30
28763;DHT22;15918;51.270;6.522;2023-07-16T06:13:07;23.40;54.20
28763;DHT22;15918;51.270;6.522;2023-07-16T06:15:32;23.50;54.30
28763;DHT22;15918;51.270;6.522;2023-07-16T06:17:58;23.60;54.20
28763;DHT22;15918;51.270;6.522;2023-07-16T06:20:24;23.60;54.20
28763;DHT22;15918;51.270;6.522;2023-07-16T06:22:49;23.60;54.10
28763;DHT22;15918;51.270;6.522;2023-07-16T06:25:15;23.60;54.10
28763;DHT22;15918;51.270;6.522;2023-07-16T06:27:40;23.70;54.00
28763;DHT22;15918;51.270;6.522;2023-07-16T06:30:06;23.70;53.80
28763;DHT22;15918;51.270;6.522;2023-07-16T06:32:32;23.80;53.80
28763;DHT22;15918;51.270;6.522;2023-07-16T06:34:58;23.80;53.60
28763;DHT22;15918;51.270;6.522;2023-07-16T06:37:23;23.90;53.20
28763;DHT22;15918;51.270;6.522;2023-07-16T06:39:51;23.90;53.00
28763;DHT22;15918;51.270;6.522;2023-07-16T06:42:16;23.90;52.90
28763;DHT22;15918;51.270;6.522;2023-07-16T06:44:42;24.00;52.80
28763;DHT22;15918;51.270;6.522;2023-07-16T06:47:07;24.00;52.60
28763;DHT22;15918;51.270;6.522;2023-07-16T06:49:33;24.10;52.40
28763;DHT22;15918;51.270;6.522;2023-07-16T06:52:01;24.10;52.30
28763;DHT22;15918;51.270;6.522;2023-07-16T06:54:27;24.20;52.20
28763;DHT22;15918;51.270;6.522;2023-07-16T06:56:53;24.20;51.80
28763;DHT22;15918;51.270;6.522;2023-07-16T06:59:18;24.20;51.60
28763;DHT22;15918;51.270;6.522;2023-07-16T07:01:44;24.20;51.70
28763;DHT22;15918;51.270;6.522;2023-07-16T07:04:10;24.30;51.70
28763;DHT22;15918;51.270;6.522;2023-07-16T07:06:35;24.30;51.60
28763;DHT22;15918;51.270;6.522;2023-07-16T07:09:01;24.40;51.70
28763;DHT22;15918;51.270;6.522;2023-07-16T07:11:26;24.40;51.70
28763;DHT22;15918;51.270;6.522;2023-07-16T07:13:52;24.40;51.60
28763;DHT22;15918;51.270;6.522;2023-07-16T07:16:18;24.50;51.40
28763;DHT22;15918;51.270;6.522;2023-07-16T07:18:45;24.50;51.20
28763;DHT22;15918;51.270;6.522;2023-07-16T07:21:10;24.50;50.90
28763;DHT22;15918;51.270;6.522;2023-07-16T07:23:36;24.50;50.70
28763;DHT22;15918;51.270;6.522;2023-07-16T07:26:02;24.60;50.60
28763;DHT22;15918;51.270;6.522;2023-07-16T07:28:27;24.60;50.60
28763;DHT22;15918;51.270;6.522;2023-07-16T07:30:54;24.60;50.40
28763;DHT22;15918;51.270;6.522;2023-07-16T07:33:19;24.70;50.30
28763;DHT22;15918;51.270;6.522;2023-07-16T07:35:45;24.70;50.40
28763;DHT22;15918;51.270;6.522;2023-07-16T07:38:11;24.70;50.40
28763;DHT22;15918;51.270;6.522;2023-07-16T07:40:36;24.80;50.40
28763;DHT22;15918;51.270;6.522;2023-07-16T07:43:02;24.80;50.40
28763;DHT22;15918;51.270;6.522;2023-07-16T07:45:28;24.80;50.30
28763;DHT22;15918;51.270;6.522;2023-07-16T07:47:53;24.90;50.10
28763;DHT22;15918;51.270;6.522;2023-07-16T07:50:19;24.90;50.00
28763;DHT22;15918;51.270;6.522;2023-07-16T07:52:45;24.90;49.90
28763;DHT22;15918;51.270;6.522;2023-07-16T07:55:10;25.00;49.80
28763;DHT22;15918;51.270;6.522;2023-07-16T07:57:36;25.00;49.70
28763;DHT22;15918;51.270;6.522;2023-07-16T08:00:02;25.00;49.70
28763;DHT22;15918;51.270;6.522;2023-07-16T08:02:28;25.10;49.60
28763;DHT22;15918;51.270;6.522;2023-07-16T08:04:54;25.10;49.30
28763;DHT22;15918;51.270;6.522;2023-07-16T08:07:21;25.10;49.10
28763;DHT22;15918;51.270;6.522;2023-07-16T08:09:47;25.10;48.90
28763;DHT22;15918;51.270;6.522;2023-07-16T08:12:13;25.20;48.90
28763;DHT22;15918;51.270;6.522;2023-07-16T08:14:39;25.20;48.90
28763;DHT22;15918;51.270;6.522;2023-07-16T08:17:05;25.20;48.80
28763;DHT22;15918;51.270;6.522;2023-07-16T08:19:30;25.20;48.70
28763;DHT22;15918;51.270;6.522;2023-07-16T08:21:56;25.20;48.60
28763;DHT22;15918;51.270;6.522;2023-07-16T08:24:22;25.30;48.50
28763;DHT22;15918;51.270;6.522;2023-07-16T08:26:47;25.30;48.50
28763;DHT22;15918;51.270;6.522;2023-07-16T08:29:13;25.30;48.70
28763;DHT22;15918;51.270;6.522;2023-07-16T08:31:39;25.30;48.50
28763;DHT22;15918;51.270;6.522;2023-07-16T08:34:05;25.30;48.40
28763;DHT22;15918;51.270;6.522;2023-07-16T08:36:33;25.30;48.20
28763;DHT22;15918;51.270;6.522;2023-07-16T08:38:58;25.40;48.50
28763;DHT22;15918;51.270;6.522;2023-07-16T08:41:25;25.40;48.30
28763;DHT22;15918;51.270;6.522;2023-07-16T08:43:51;25.40;48.10
28763;DHT22;15918;51.270;6.522;2023-07-16T08:46:18;25.40;47.70
28763;DHT22;15918;51.270;6.522;2023-07-16T08:48:45;25.40;47.70
28763;DHT22;15918;51.270;6.522;2023-07-16T08:51:10;25.40;47.80
28763;DHT22;15918;51.270;6.522;2023-07-16T08:53:39;25.50;47.80
28763;DHT22;15918;51.270;6.522;2023-07-16T08:56:05;25.50;47.90
28763;DHT22;15918;51.270;6.522;2023-07-16T08:58:31;25.50;48.00
28763;DHT22;15918;51.270;6.522;2023-07-16T09:00:57;25.50;48.10
28763;DHT22;15918;51.270;6.522;2023-07-16T09:03:23;25.60;48.20
28763;DHT22;15918;51.270;6.522;2023-07-16T09:05:49;25.60;48.20
28763;DHT22;15918;51.270;6.522;2023-07-16T09:08:15;25.60;48.00
28763;DHT22;15918;51.270;6.522;2023-07-16T09:10:41;25.60;47.70
28763;DHT22;15918;51.270;6.522;2023-07-16T09:13:07;25.60;47.70
28763;DHT22;15918;51.270;6.522;2023-07-16T09:15:33;25.70;47.60
28763;DHT22;15918;51.270;6.522;2023-07-16T09:18:03;25.70;47.50
28763;DHT22;15918;51.270;6.522;2023-07-16T09:20:29;25.70;47.20
28763;DHT22;15918;51.270;6.522;2023-07-16T09:22:57;25.70;47.10
28763;DHT22;15918;51.270;6.522;2023-07-16T09:25:29;25.70;47.10
28763;DHT22;15918;51.270;6.522;2023-07-16T09:27:57;25.70;46.90
28763;DHT22;15918;51.270;6.522;2023-07-16T09:30:23;25.70;47.00
28763;DHT22;15918;51.270;6.522;2023-07-16T09:32:49;25.70;47.10
28763;DHT22;15918;51.270;6.522;2023-07-16T09:35:16;25.70;46.90
28763;DHT22;15918;51.270;6.522;2023-07-16T09:37:42;25.70;46.80
28763;DHT22;15918;51.270;6.522;2023-07-16T09:40:10;25.80;46.50
28763;DHT22;15918;51.270;6.522;2023-07-16T09:42:37;25.70;46.10
28763;DHT22;15918;51.270;6.522;2023-07-16T09:45:05;25.70;46.10
28763;DHT22;15918;51.270;6.522;2023-07-16T09:47:31;25.80;46.20
28763;DHT22;15918;51.270;6.522;2023-07-16T09:49:57;25.80;46.40
28763;DHT22;15918;51.270;6.522;2023-07-16T09:52:24;25.80;47.10
28763;DHT22;15918;51.270;6.522;2023-07-16T09:54:53;25.80;46.50
28763;DHT22;15918;51.270;6.522;2023-07-16T09:57:22;25.80;46.30
28763;DHT22;15918;51.270;6.522;2023-07-16T09:59:49;25.80;46.20
28763;DHT22;15918;51.270;6.522;2023-07-16T10:02:17;25.80;46.10
28763;DHT22;15918;51.270;6.522;2023-07-16T10:04:43;25.70;46.20
28763;DHT22;15918;51.270;6.522;2023-07-16T10:07:20;25.80;46.10
28763;DHT22;15918;51.270;6.522;2023-07-16T10:09:54;25.80;45.90
28763;DHT22;15918;51.270;6.522;2023-07-16T10:12:25;25.70;46.50
28763;DHT22;15918;51.270;6.522;2023-07-16T10:14:53;25.70;46.10
28763;DHT22;15918;51.270;6.522;2023-07-16T10:17:20;25.80;46.20
28763;DHT22;15918;51.270;6.522;2023-07-16T10:22:36;25.80;46.30
28763;DHT22;15918;51.270;6.522;2023-07-16T10:25:25;25.80;46.20
28763;DHT22;15918;51.270;6.522;2023-07-16T10:27:51;25.80;46.20
28763;DHT22;15918;51.270;6.522;2023-07-16T10:30:17;25.80;46.30
28763;DHT22;15918;51.270;6.522;2023-07-16T10:32:43;25.80;46.20
28763;DHT22;15918;51.270;6.522;2023-07-16T10:35:10;25.80;46.30
28763;DHT22;15918;51.270;6.522;2023-07-16T10:37:37;25.80;46.10
28763;DHT22;15918;51.270;6.522;2023-07-16T10:40:04;25.80;46.10
28763;DHT22;15918;51.270;6.522;2023-07-16T10:42:30;25.80;46.10
28763;DHT22;15918;51.270;6.522;2023-07-16T10:45:01;25.90;46.10
28763;DHT22;15918;51.270;6.522;2023-07-16T10:47:31;25.90;45.90
28763;DHT22;15918;51.270;6.522;2023-07-16T10:49:58;25.90;45.90
28763;DHT22;15918;51.270;6.522;2023-07-16T10:52:24;25.90;45.70
28763;DHT22;15918;51.270;6.522;2023-07-16T10:54:51;25.90;46.00
28763;DHT22;15918;51.270;6.522;2023-07-16T10:57:20;26.00;45.80
28763;DHT22;15918;51.270;6.522;2023-07-16T10:59:46;25.90;45.70
28763;DHT22;15918;51.270;6.522;2023-07-16T11:02:16;25.90;45.50
28763;DHT22;15918;51.270;6.522;2023-07-16T11:04:43;25.90;45.40
28763;DHT22;15918;51.270;6.522;2023-07-16T11:07:11;25.90;45.40
28763;DHT22;15918;51.270;6.522;2023-07-16T11:09:42;25.90;45.10
28763;DHT22;15918;51.270;6.522;2023-07-16T11:12:09;25.90;45.10
28763;DHT22;15918;51.270;6.522;2023-07-16T11:14:36;25.90;45.20
28763;DHT22;15918;51.270;6.522;2023-07-16T11:17:08;25.90;45.00
28763;DHT22;15918;51.270;6.522;2023-07-16T11:19:35;25.90;45.10
28763;DHT22;15918;51.270;6.522;2023-07-16T11:22:02;25.90;45.00
28763;DHT22;15918;51.270;6.522;2023-07-16T11:24:28;25.90;45.10
28763;DHT22;15918;51.270;6.522;2023-07-16T11:26:55;25.90;45.20
28763;DHT22;15918;51.270;6.522;2023-07-16T11:29:23;25.90;45.20
28763;DHT22;15918;51.270;6.522;2023-07-16T11:31:52;25.90;45.20
28763;DHT22;15918;51.270;6.522;2023-07-16T11:34:21;25.90;45.20
28763;DHT22;15918;51.270;6.522;2023-07-16T11:36:48;25.90;45.20
28763;DHT22;15918;51.270;6.522;2023-07-16T11:39:14;25.90;45.40
28763;DHT22;15918;51.270;6.522;2023-07-16T11:41:40;25.90;45.50
28763;DHT22;15918;51.270;6.522;2023-07-16T11:44:07;25.90;45.40
28763;DHT22;15918;51.270;6.522;2023-07-16T11:46:34;25.90;45.30
28763;DHT22;15918;51.270;6.522;2023-07-16T11:49:00;25.90;45.00
28763;DHT22;15918;51.270;6.522;2023-07-16T11:51:26;25.90;45.40
28763;DHT22;15918;51.270;6.522;2023-07-16T11:53:51;25.90;44.90
28763;DHT22;15918;51.270;6.522;2023-07-16T11:56:17;25.90;44.90
28763;DHT22;15918;51.270;6.522;2023-07-16T11:58:43;25.80;44.70
28763;DHT22;15918;51.270;6.522;2023-07-16T12:01:09;25.80;45.30
28763;DHT22;15918;51.270;6.522;2023-07-16T12:03:35;25.80;44.80
28763;DHT22;15918;51.270;6.522;2023-07-16T12:06:00;25.80;44.70
28763;DHT22;15918;51.270;6.522;2023-07-16T12:08:26;25.80;44.80
28763;DHT22;15918;51.270;6.522;2023-07-16T12:10:52;25.80;44.70
28763;DHT22;15918;51.270;6.522;2023-07-16T12:13:17;25.80;44.60
28763;DHT22;15918;51.270;6.522;2023-07-16T12:15:43;25.80;44.70
28763;DHT22;15918;51.270;6.522;2023-07-16T12:18:09;25.80;44.70
28763;DHT22;15918;51.270;6.522;2023-07-16T12:20:35;25.80;44.70
28763;DHT22;15918;51.270;6.522;2023-07-16T12:23:01;25.80;44.80
28763;DHT22;15918;51.270;6.522;2023-07-16T12:25:28;25.80;45.00
28763;DHT22;15918;51.270;6.522;2023-07-16T12:27:54;25.80;45.10
28763;DHT22;15918;51.270;6.522;2023-07-16T12:30:19;25.80;45.20
28763;DHT22;15918;51.270;6.522;2023-07-16T12:32:45;25.80;45.20
28763;DHT22;15918;51.270;6.522;2023-07-16T12:35:10;25.80;45.30
28763;DHT22;15918;51.270;6.522;2023-07-16T12:37:36;25.80;45.20
28763;DHT22;15918;51.270;6.522;2023-07-16T12:40:02;25.90;45.20
28763;DHT22;15918;51.270;6.522;2023-07-16T12:42:28;25.90;45.10
28763;DHT22;15918;51.270;6.522;2023-07-16T12:44:54;25.90;45.30
28763;DHT22;15918;51.270;6.522;2023-07-16T12:47:19;25.90;45.50
28763;DHT22;15918;51.270;6.522;2023-07-16T12:49:45;25.90;45.40
28763;DHT22;15918;51.270;6.522;2023-07-16T12:52:11;25.90;45.30
28763;DHT22;15918;51.270;6.522;2023-07-16T12:54:36;25.90;45.30
28763;DHT22;15918;51.270;6.522;2023-07-16T12:57:02;25.90;45.20
28763;DHT22;15918;51.270;6.522;2023-07-16T12:59:28;25.90;45.10
28763;DHT22;15918;51.270;6.522;2023-07-16T13:01:53;25.90;45.00
28763;DHT22;15918;51.270;6.522;2023-07-16T13:04:19;25.90;45.00
28763;DHT22;15918;51.270;6.522;2023-07-16T13:06:44;25.90;45.00
28763;DHT22;15918;51.270;6.522;2023-07-16T13:09:13;25.90;45.00
28763;DHT22;15918;51.270;6.522;2023-07-16T13:11:39;25.90;45.00
28763;DHT22;15918;51.270;6.522;2023-07-16T13:14:05;26.00;45.00
28763;DHT22;15918;51.270;6.522;2023-07-16T13:16:30;25.90;45.00
28763;DHT22;15918;51.270;6.522;2023-07-16T13:18:56;25.90;45.00
28763;DHT22;15918;51.270;6.522;2023-07-16T13:21:22;26.00;45.00
28763;DHT22;15918;51.270;6.522;2023-07-16T13:23:47;26.00;45.10
28763;DHT22;15918;51.270;6.522;2023-07-16T13:26:13;26.00;45.10
28763;DHT22;15918;51.270;6.522;2023-07-16T13:28:38;26.00;45.00
28763;DHT22;15918;51.270;6.522;2023-07-16T13:31:04;26.00;44.70
28763;DHT22;15918;51.270;6.522;2023-07-16T13:33:30;26.00;44.60
28763;DHT22;15918;51.270;6.522;2023-07-16T13:35:56;26.00;44.40
28763;DHT22;15918;51.270;6.522;2023-07-16T13:38:22;26.00;44.30
28763;DHT22;15918;51.270;6.522;2023-07-16T13:40:48;26.00;44.30
28763;DHT22;15918;51.270;6.522;2023-07-16T13:43:13;26.00;44.30
28763;DHT22;15918;51.270;6.522;2023-07-16T13:45:39;26.00;43.90
28763;DHT22;15918;51.270;6.522;2023-07-16T13:48:05;26.00;43.60
28763;DHT22;15918;51.270;6.522;2023-07-16T13:50:30;26.00;43.60
28763;DHT22;15918;51.270;6.522;2023-07-16T13:52:56;26.10;43.50
28763;DHT22;15918;51.270;6.522;2023-07-16T13:55:22;26.10;43.70
28763;DHT22;15918;51.270;6.522;2023-07-16T13:57:47;26.10;43.60
28763;DHT22;15918;51.270;6.522;2023-07-16T14:00:13;26.10;43.50
28763;DHT22;15918;51.270;6.522;2023-07-16T14:02:42;26.10;43.30
28763;DHT22;15918;51.270;6.522;2023-07-16T14:05:07;26.10;43.50
28763;DHT22;15918;51.270;6.522;2023-07-16T14:07:34;26.10;43.70
28763;DHT22;15918;51.270;6.522;2023-07-16T14:09:59;26.10;43.70
28763;DHT22;15918;51.270;6.522;2023-07-16T14:12:25;26.10;43.80
28763;DHT22;15918;51.270;6.522;2023-07-16T14:14:50;26.10;43.90
28763;DHT22;15918;51.270;6.522;2023-07-16T14:17:16;26.20;44.00
28763;DHT22;15918;51.270;6.522;2023-07-16T14:19:41;26.20;43.90
28763;DHT22;15918;51.270;6.522;2023-07-16T14:22:07;26.20;43.80
28763;DHT22;15918;51.270;6.522;2023-07-16T14:24:37;26.20;43.80
28763;DHT22;15918;51.270;6.522;2023-07-16T14:27:03;26.20;43.80
28763;DHT22;15918;51.270;6.522;2023-07-16T14:29:28;26.20;43.80
28763;DHT22;15918;51.270;6.522;2023-07-16T14:31:55;26.20;43.70
28763;DHT22;15918;51.270;6.522;2023-07-16T14:34:21;26.20;43.70
28763;DHT22;15918;51.270;6.522;2023-07-16T14:36:46;26.20;43.50
28763;DHT22;15918;51.270;6.522;2023-07-16T14:39:12;26.20;43.60
28763;DHT22;15918;51.270;6.522;2023-07-16T14:41:37;26.20;43.50
28763;DHT22;15918;51.270;6.522;2023-07-16T14:44:04;26.20;43.60
28763;DHT22;15918;51.270;6.522;2023-07-16T14:46:30;26.20;43.70
28763;DHT22;15918;51.270;6.522;2023-07-16T14:48:55;26.20;43.80
28763;DHT22;15918;51.270;6.522;2023-07-16T14:51:23;26.20;43.80
28763;DHT22;15918;51.270;6.522;2023-07-16T14:53:50;26.20;43.80
28763;DHT22;15918;51.270;6.522;2023-07-16T14:56:16;26.20;43.80
28763;DHT22;15918;51.270;6.522;2023-07-16T14:58:41;26.20;43.80
28763;DHT22;15918;51.270;6.522;2023-07-16T15:01:07;26.20;43.90
28763;DHT22;15918;51.270;6.522;2023-07-16T15:03:36;26.20;43.80
28763;DHT22;15918;51.270;6.522;2023-07-16T15:06:03;26.20;43.80
28763;DHT22;15918;51.270;6.522;2023-07-16T15:08:29;26.20;44.00
28763;DHT22;15918;51.270;6.522;2023-07-16T15:10:55;26.20;43.90
28763;DHT22;15918;51.270;6.522;2023-07-16T15:13:21;26.20;43.80
28763;DHT22;15918;51.270;6.522;2023-07-16T15:15:51;26.20;43.80
28763;DHT22;15918;51.270;6.522;2023-07-16T15:18:19;26.20;43.60
28763;DHT22;15918;51.270;6.522;2023-07-16T15:20:45;26.20;43.70
28763;DHT22;15918;51.270;6.522;2023-07-16T15:23:11;26.20;43.50
28763;DHT22;15918;51.270;6.522;2023-07-16T15:25:37;26.20;43.60
28763;DHT22;15918;51.270;6.522;2023-07-16T15:28:02;26.20;43.50
28763;DHT22;15918;51.270;6.522;2023-07-16T15:30:28;26.20;43.30
28763;DHT22;15918;51.270;6.522;2023-07-16T15:32:54;26.20;43.40
28763;DHT22;15918;51.270;6.522;2023-07-16T15:35:19;26.20;43.50